NCAR-RAP Real-Time Weather Data

Output produced by METARs form (28 June 2017  12:07 UTC)
found at http://weather.rap.ucar.edu/surface/
 
Conditions at: KTPA observed 28 June 2017  11:53 UTC
Temperature: 26.1°C (79°F)
Dewpoint: 22.2°C (72°F) [RH = 79%]
Pressure (altimeter): 30.04 inches Hg (1017.4 mb)
[Sea-level pressure: 1017.3 mb]
Winds: from the ENE (70 degrees) at 3 MPH (3 knots; 1.6 m/s)
Visibility: 10 or more miles (16+ km)
Ceiling: at least 12,000 feet AGL
Clouds: few clouds at 2200 feet AGL
scattered clouds at 25000 feet AGL
Present Weather: no significant weather observed at this time
KTPA 281153Z 07003KT 10SM FEW022 SCT250 26/22 A3004 RMK AO2 SLP173 TCU DSNT W T02610222 10261 20244 53015

Conditions at: KTPA observed 28 June 2017  10:53 UTC
Temperature: 25.0°C (77°F)
Dewpoint: 22.2°C (72°F) [RH = 84%]
Pressure (altimeter): 30.02 inches Hg (1016.7 mb)
[Sea-level pressure: 1016.6 mb]
Winds: calm
Visibility: 10 or more miles (16+ km)
Ceiling: at least 12,000 feet AGL
Clouds: scattered clouds at 25000 feet AGL
Present Weather: no significant weather observed at this time
KTPA 281053Z COR 00000KT 10SM SCT250 25/22 A3002 RMK AO2 SLP166 T02500222

Conditions at: KTPA observed 28 June 2017  09:53 UTC
Temperature: 25.0°C (77°F)
Dewpoint: 22.2°C (72°F) [RH = 84%]
Pressure (altimeter): 30.02 inches Hg (1016.7 mb)
[Sea-level pressure: 1016.4 mb]
Winds: calm
Visibility: 10 or more miles (16+ km)
Ceiling: at least 12,000 feet AGL
Clouds: sky clear below 12,000 feet AGL
Present Weather: no significant weather observed at this time
KTPA 280953Z 00000KT 10SM CLR 25/22 A3002 RMK AO2 SLP164 T02500222

Conditions at: KTPA observed 28 June 2017  08:53 UTC
Temperature: 24.4°C (76°F)
Dewpoint: 21.7°C (71°F) [RH = 85%]
Pressure (altimeter): 30.00 inches Hg (1016.0 mb)
[Sea-level pressure: 1015.8 mb]
Winds: calm
Visibility: 10 or more miles (16+ km)
Ceiling: at least 12,000 feet AGL
Clouds: sky clear below 12,000 feet AGL
Present Weather: no significant weather observed at this time
KTPA 280853Z 00000KT 10SM CLR 24/22 A3000 RMK AO2 SLP158 T02440217 55007

Conditions at: KTPA observed 28 June 2017  07:53 UTC
Temperature: 24.4°C (76°F)
Dewpoint: 21.7°C (71°F) [RH = 85%]
Pressure (altimeter): 30.00 inches Hg (1016.0 mb)
[Sea-level pressure: 1015.7 mb]
Winds: calm
Visibility: 10 or more miles (16+ km)
Ceiling: at least 12,000 feet AGL
Clouds: few clouds at 10000 feet AGL
few clouds at 25000 feet AGL
Present Weather: no significant weather observed at this time
KTPA 280753Z 00000KT 10SM FEW100 FEW250 24/22 A3000 RMK AO2 SLP157 T02440217

Conditions at: KTPA observed 28 June 2017  06:53 UTC
Temperature: 24.4°C (76°F)
Dewpoint: 21.7°C (71°F) [RH = 85%]
Pressure (altimeter): 29.99 inches Hg (1015.7 mb)
[Sea-level pressure: 1015.6 mb]
Winds: from the SE (130 degrees) at 3 MPH (3 knots; 1.6 m/s)
Visibility: 10 or more miles (16+ km)
Ceiling: at least 12,000 feet AGL
Clouds: sky clear below 12,000 feet AGL
Present Weather: no significant weather observed at this time
KTPA 280653Z 13003KT 10SM CLR 24/22 A2999 RMK AO2 SLP156 T02440217

Conditions at: KTPA observed 28 June 2017  05:53 UTC
Temperature: 25.0°C (77°F)
Dewpoint: 21.7°C (71°F) [RH = 82%]
Pressure (altimeter): 30.02 inches Hg (1016.7 mb)
[Sea-level pressure: 1016.5 mb]
Winds: from the E (100 degrees) at 3 MPH (3 knots; 1.6 m/s)
Visibility: 10 or more miles (16+ km)
Ceiling: at least 12,000 feet AGL
Clouds: few clouds at 25000 feet AGL
Present Weather: no significant weather observed at this time
KTPA 280553Z 10003KT 10SM FEW250 25/22 A3002 RMK AO2 SLP165 T02500217 10306 20250 55003

Conditions at: KTPA observed 28 June 2017  04:53 UTC
Temperature: 25.0°C (77°F)
Dewpoint: 21.7°C (71°F) [RH = 82%]
Pressure (altimeter): 30.02 inches Hg (1016.7 mb)
[Sea-level pressure: 1016.5 mb]
Winds: from the ESE (110 degrees) at 3 MPH (3 knots; 1.6 m/s)
Visibility: 10 or more miles (16+ km)
Ceiling: at least 12,000 feet AGL
Clouds: sky clear below 12,000 feet AGL
Present Weather: no significant weather observed at this time
KTPA 280453Z 11003KT 10SM CLR 25/22 A3002 RMK AO2 SLP165 T02500217 403390250

Conditions at: KTPA observed 28 June 2017  03:53 UTC
Temperature: 25.6°C (78°F)
Dewpoint: 21.7°C (71°F) [RH = 79%]
Pressure (altimeter): 30.03 inches Hg (1017.0 mb)
[Sea-level pressure: 1016.9 mb]
Winds: from the ESE (110 degrees) at 7 MPH (6 knots; 3.1 m/s)
Visibility: 10 or more miles (16+ km)
Ceiling: at least 12,000 feet AGL
Clouds: sky clear below 12,000 feet AGL
Present Weather: no significant weather observed at this time
KTPA 280353Z 11006KT 10SM CLR 26/22 A3003 RMK AO2 SLP169 T02560217

Conditions at: KTPA observed 28 June 2017  02:53 UTC
Temperature: 26.1°C (79°F)
Dewpoint: 22.8°C (73°F) [RH = 82%]
Pressure (altimeter): 30.03 inches Hg (1017.0 mb)
[Sea-level pressure: 1016.9 mb]
Winds: from the ESE (110 degrees) at 6 MPH (5 knots; 2.6 m/s)
Visibility: 10 or more miles (16+ km)
Ceiling: at least 12,000 feet AGL
Clouds: few clouds at 1200 feet AGL
few clouds at 3600 feet AGL
Present Weather: no significant weather observed at this time
KTPA 280253Z 11005KT 10SM FEW012 FEW036 26/23 A3003 RMK AO2 SLP169 T02610228 51018

Conditions at: KTPA observed 28 June 2017  01:53 UTC
Temperature: 26.7°C (80°F)
Dewpoint: 22.2°C (72°F) [RH = 76%]
Pressure (altimeter): 30.03 inches Hg (1017.0 mb)
[Sea-level pressure: 1016.8 mb]
Winds: from the E (90 degrees) at 8 MPH (7 knots; 3.6 m/s)
Visibility: 10 or more miles (16+ km)
Ceiling: at least 12,000 feet AGL
Clouds: few clouds at 3300 feet AGL
Present Weather: no significant weather observed at this time
KTPA 280153Z 09007KT 10SM FEW033 27/22 A3003 RMK AO2 SLP168 T02670222

Conditions at: KTPA observed 28 June 2017  00:53 UTC
Temperature: 28.9°C (84°F)
Dewpoint: 22.2°C (72°F) [RH = 67%]
Pressure (altimeter): 30.00 inches Hg (1016.0 mb)
[Sea-level pressure: 1015.7 mb]
Winds: from the N (350 degrees) at 8 MPH (7 knots; 3.6 m/s)
Visibility: 10 or more miles (16+ km)
Ceiling: at least 12,000 feet AGL
Clouds: few clouds at 3500 feet AGL
few clouds at 7500 feet AGL
scattered clouds at 30000 feet AGL
Present Weather: no significant weather observed at this time
KTPA 280053Z 35007KT 10SM FEW035TCU FEW075 SCT300 29/22 A3000 RMK AO2 SLP157 CB DSNT E-SE AND SW TCU N-S T02890222

Conditions at: KTPA observed 27 June 2017  23:53 UTC
Temperature: 30.0°C (86°F)
Dewpoint: 22.2°C (72°F) [RH = 63%]
Pressure (altimeter): 29.98 inches Hg (1015.3 mb)
[Sea-level pressure: 1015.1 mb]
Winds: from the NW (320 degrees) at 12 MPH (10 knots; 5.2 m/s)
Visibility: 10 or more miles (16+ km)
Ceiling: 32000 feet AGL
Clouds: few clouds at 3500 feet AGL
few clouds at 23000 feet AGL
broken clouds at 32000 feet AGL
Present Weather: no significant weather observed at this time
KTPA 272353Z 32010KT 10SM FEW035TCU FEW230 BKN320 30/22 A2998 RMK AO2 SLP151 CB DSNT E-SE TCU N-S T03000222 10339 20300 53013

Conditions at: KTPA observed 27 June 2017  22:53 UTC
Temperature: 30.6°C (87°F)
Dewpoint: 22.2°C (72°F) [RH = 61%]
Pressure (altimeter): 29.96 inches Hg (1014.6 mb)
[Sea-level pressure: 1014.4 mb]
Winds: from the WNW (300 degrees) at 12 MPH (10 knots; 5.2 m/s)
Visibility: 10 or more miles (16+ km)
Ceiling: 32000 feet AGL
Clouds: scattered clouds at 3800 feet AGL
scattered clouds at 22000 feet AGL
broken clouds at 32000 feet AGL
Present Weather: no significant weather observed at this time
KTPA 272253Z 30010KT 10SM SCT038TCU SCT220 BKN320 31/22 A2996 RMK AO2 SLP144 CB DSNT NE AND SE TCU NW-S T03060222

Conditions at: KTPA observed 27 June 2017  21:53 UTC
Temperature: 32.2°C (90°F)
Dewpoint: 21.7°C (71°F) [RH = 54%]
Pressure (altimeter): 29.96 inches Hg (1014.6 mb)
[Sea-level pressure: 1014.3 mb]
Winds: from the W (280 degrees) at 14 MPH (12 knots; 6.2 m/s)
gusting to 23 MPH (20 knots; 10.4 m/s)
Visibility: 10 or more miles (16+ km)
Ceiling: 32000 feet AGL
Clouds: few clouds at 4500 feet AGL
scattered clouds at 22000 feet AGL
broken clouds at 32000 feet AGL
Present Weather: no significant weather observed at this time
KTPA 272153Z 28012G20KT 10SM FEW045TCU SCT220 BKN320 32/22 A2996 RMK AO2 LTG DSNT E TSE15 SLP143 TS DVLPD AND DSIPTD RPDLY CB DSNT NE-E AND SE TCU N-S VCSH E T03220217

Conditions at: KTPA observed 27 June 2017  21:15 UTC
Temperature: 32.2°C (90°F)
Dewpoint: 22.2°C (72°F) [RH = 56%]
Pressure (altimeter): 29.95 inches Hg (1014.3 mb)
Winds: from the W (280 degrees) at 13 MPH (11 knots; 5.7 m/s)
Visibility: 10 or more miles (16+ km)
Ceiling: 22000 feet AGL
Clouds: scattered clouds at 4500 feet AGL
broken clouds at 22000 feet AGL
Present Weather: no significant weather observed at this time
KTPA 272115Z 28011KT 10SM SCT045TCU BKN220 32/22 A2995 RMK AO2 LTG DSNT E TSE15 TS DVLPD AND DSIPTD RPDLY CB DSNT N AND E TCU N-E VCSH E T03220222

Conditions at: KTPA observed 27 June 2017  20:53 UTC
Temperature: 32.8°C (91°F)
Dewpoint: 22.8°C (73°F) [RH = 56%]
Pressure (altimeter): 29.94 inches Hg (1014.0 mb)
[Sea-level pressure: 1013.9 mb]
Winds: from the W (270 degrees) at 14 MPH (12 knots; 6.2 m/s)
Visibility: 10 or more miles (16+ km)
Ceiling: 22000 feet AGL
Clouds: scattered clouds at 4500 feet AGL
broken clouds at 22000 feet AGL
Present Weather: TS  (thunderstorm)
KTPA 272053Z 27012KT 10SM TS SCT045CB BKN220 33/23 A2994 RMK AO2 LTG DSNT E TSE21B50 SLP139 OCNL LTGCG VC S TS VC S CB DSNT N AND NE-SE TCU N-S VCSH NE-S T03280228 58006

Conditions at: KTPA observed 27 June 2017  20:50 UTC
Temperature: 33.0°C (91°F)
Dewpoint: 23.0°C (73°F) [RH = 56%]
Pressure (altimeter): 29.95 inches Hg (1014.3 mb)
Winds: from the WNW (290 degrees) at 15 MPH (13 knots; 6.8 m/s)
Visibility: 10 or more miles (16+ km)
Ceiling: 22000 feet AGL
Clouds: scattered clouds at 4500 feet AGL
broken clouds at 22000 feet AGL
Present Weather: TS  (thunderstorm)
KTPA 272050Z 29013KT 10SM TS SCT045CB BKN220 33/23 A2995 RMK AO2 LTG DSNT E TSE21B50 OCNL LTGCG VC S TS VC S CB DSNT N AND NE-SE TCU N-S VCSH NE-S

Conditions at: KTPA observed 27 June 2017  20:27 UTC
Temperature: 33.3°C (92°F)
Dewpoint: 22.8°C (73°F) [RH = 54%]
Pressure (altimeter): 29.95 inches Hg (1014.3 mb)
Winds: from the W (260 degrees) at 15 MPH (13 knots; 6.8 m/s)
gusting to 21 MPH (18 knots; 9.4 m/s)
Visibility: 10 or more miles (16+ km)
Ceiling: at least 12,000 feet AGL
Clouds: scattered clouds at 4500 feet AGL
scattered clouds at 32000 feet AGL
Present Weather: VCTS  (thunderstorm in vicinity)
KTPA 272027Z 26013G18KT 10SM VCTS SCT045TCU SCT320 33/23 A2995 RMK AO2 LTG DSNT E AND S TSE21 CB DSNT E-SE TCU ALQDS T03330228

Conditions at: KTPA observed 27 June 2017  19:53 UTC
Temperature: 32.8°C (91°F)
Dewpoint: 22.2°C (72°F) [RH = 54%]
Pressure (altimeter): 29.96 inches Hg (1014.6 mb)
[Sea-level pressure: 1014.6 mb]
Winds: from the W (260 degrees) at 13 MPH (11 knots; 5.7 m/s)
Visibility: 10 or more miles (16+ km)
Ceiling: at least 12,000 feet AGL
Clouds: scattered clouds at 4500 feet AGL
scattered clouds at 32000 feet AGL
Present Weather: no significant weather observed at this time
KTPA 271953Z 26011KT 10SM SCT045TCU SCT320 33/22 A2996 RMK AO2 LTG DSNT E SLP146 CB DSNT E-SE TCU ALQDS T03280222

Conditions at: KTPA observed 27 June 2017  18:53 UTC
Temperature: 32.8°C (91°F)
Dewpoint: 22.8°C (73°F) [RH = 56%]
Pressure (altimeter): 29.96 inches Hg (1014.6 mb)
[Sea-level pressure: 1014.5 mb]
Winds: from the W (260 degrees) at 13 MPH (11 knots; 5.7 m/s)
Visibility: 10 or more miles (16+ km)
Ceiling: 4500 feet AGL
Clouds: broken clouds at 4500 feet AGL
broken clouds at 30000 feet AGL
Present Weather: no significant weather observed at this time
KTPA 271853Z 26011KT 10SM BKN045TCU BKN300 33/23 A2996 RMK AO2 LTG DSNT SE SLP145 CB DSNT N AND E-S TCU ALQDS T03280228

Conditions at: KTPA observed 27 June 2017  17:53 UTC
Temperature: 32.2°C (90°F)
Dewpoint: 23.3°C (74°F) [RH = 59%]
Pressure (altimeter): 29.99 inches Hg (1015.7 mb)
[Sea-level pressure: 1015.4 mb]
Winds: from the WSW (250 degrees) at 12 MPH (10 knots; 5.2 m/s)
Visibility: 10 or more miles (16+ km)
Ceiling: at least 12,000 feet AGL
Clouds: scattered clouds at 3800 feet AGL
scattered clouds at 25000 feet AGL
Present Weather: no significant weather observed at this time
KTPA 271753Z 25010KT 10SM SCT038TCU SCT250 32/23 A2999 RMK AO2 SLP154 CB DSNT E AND SE TCU E T03220233 10328 20278 58011

Conditions at: KTPA observed 27 June 2017  16:53 UTC
Temperature: 32.2°C (90°F)
Dewpoint: 22.8°C (73°F) [RH = 58%]
Pressure (altimeter): 30.01 inches Hg (1016.3 mb)
[Sea-level pressure: 1016.0 mb]
Winds: from the WSW (250 degrees) at 9 MPH (8 knots; 4.2 m/s)
Visibility: 10 or more miles (16+ km)
Ceiling: at least 12,000 feet AGL
Clouds: scattered clouds at 3800 feet AGL
scattered clouds at 25000 feet AGL
Present Weather: no significant weather observed at this time
KTPA 271653Z 25008KT 10SM SCT038CB SCT250 32/23 A3001 RMK AO2 SLP160 CB NE-E MOV E T03220228

Conditions at: KTPA observed 27 June 2017  15:53 UTC
Temperature: 31.7°C (89°F)
Dewpoint: 22.8°C (73°F) [RH = 59%]
Pressure (altimeter): 30.02 inches Hg (1016.7 mb)
[Sea-level pressure: 1016.5 mb]
Winds: from the W (260 degrees) at 10 MPH (9 knots; 4.7 m/s)
Visibility: 10 or more miles (16+ km)
Ceiling: at least 12,000 feet AGL
Clouds: scattered clouds at 3500 feet AGL
scattered clouds at 25000 feet AGL
Present Weather: no significant weather observed at this time
KTPA 271553Z 26009KT 10SM SCT035 SCT250 32/23 A3002 RMK AO2 SLP165 CU BLDG ALQDS T03170228

Conditions at: KTPA observed 27 June 2017  14:53 UTC
Temperature: 31.1°C (88°F)
Dewpoint: 22.8°C (73°F) [RH = 61%]
Pressure (altimeter): 30.02 inches Hg (1016.7 mb)
[Sea-level pressure: 1016.5 mb]
Winds: from the W (270 degrees) at 9 MPH (8 knots; 4.2 m/s)
Visibility: 10 or more miles (16+ km)
Ceiling: at least 12,000 feet AGL
Clouds: scattered clouds at 2600 feet AGL
scattered clouds at 25000 feet AGL
Present Weather: no significant weather observed at this time
KTPA 271453Z 27008KT 10SM SCT026 SCT250 31/23 A3002 RMK AO2 SLP165 T03110228 50003

Conditions at: KTPA observed 27 June 2017  13:53 UTC
Temperature: 30.0°C (86°F)
Dewpoint: 24.4°C (76°F) [RH = 72%]
Pressure (altimeter): 30.03 inches Hg (1017.0 mb)
[Sea-level pressure: 1016.7 mb]
Winds: from the WNW (300 degrees) at 7 MPH (6 knots; 3.1 m/s)
Visibility: 10 or more miles (16+ km)
Ceiling: at least 12,000 feet AGL
Clouds: scattered clouds at 2500 feet AGL
scattered clouds at 25000 feet AGL
Present Weather: no significant weather observed at this time
KTPA 271353Z 30006KT 10SM SCT025 SCT250 30/24 A3003 RMK AO2 SLP167 CB DSNT W-NW T03000244

Conditions at: KTPA observed 27 June 2017  12:53 UTC
Temperature: 29.4°C (85°F)
Dewpoint: 24.4°C (76°F) [RH = 75%]
Pressure (altimeter): 30.03 inches Hg (1017.0 mb)
[Sea-level pressure: 1016.7 mb]
Winds: variable direction winds at 6 MPH (5 knots; 2.6 m/s)
Visibility: 10 or more miles (16+ km)
Ceiling: 25000 feet AGL
Clouds: scattered clouds at 2000 feet AGL
broken clouds at 25000 feet AGL
Present Weather: no significant weather observed at this time
KTPA 271253Z VRB05KT 10SM SCT020 BKN250 29/24 A3003 RMK AO2 SLP167 CB DSNT W T02940244